KPHP

Philip Airport

Philip, South Dakota, USA
METAR KPHP 190455Z AUTO 06008KT 10SM CLR 16/11 A2994 RMK AO2 SLP128 T01560111
Observed Flight Rules
Sep-19 @ 04:55 UTC (19 minutes ago) Visual Flight Rules
Wind Visibility Clouds
60° at 8 knots 10 miles
  • Clear skies
Temperatures Readings
Current 16°C / 61°F
Dewpoint 11°C / 52°F
Humidity 72%
Altimeter 29.94" Hg
Pressure 1012.8 hPa
Elevation 672
METAR KPHP 190455Z AUTO 06008KT 10SM CLR 16/11 A2994 RMK AO2 SLP128 T01560111
Observed Flight Rules
Sep-19 @ 04:55 UTC
(19 minutes ago)
VFR
Wind Visibility
60° at 8 knots 10 miles
Clouds
  • Clear skies
Temperature Dewpoint
16°C / 61°F 11°C / 52°F
Humidity Altimeter Pressure
72% 29.94" Hg 1012.8 hPa